sensor_id;sensor_type;location;lat;lon;timestamp;pressure;altitude;pressure_sealevel;temperature;humidity
7986;BME280;4038;42.612;23.066;2022-11-25T00:01:15;92768.25;;;25.13;25.57
7986;BME280;4038;42.612;23.066;2022-11-25T00:03:42;92775.78;;;25.10;25.45
7986;BME280;4038;42.612;23.066;2022-11-25T00:06:13;92772.63;;;25.16;25.44
7986;BME280;4038;42.612;23.066;2022-11-25T00:08:40;92767.69;;;24.04;26.33
7986;BME280;4038;42.612;23.066;2022-11-25T00:11:06;92786.94;;;23.14;27.10
7986;BME280;4038;42.612;23.066;2022-11-25T00:13:32;92791.41;;;23.46;27.05
7986;BME280;4038;42.612;23.066;2022-11-25T00:16:03;92787.38;;;24.85;25.75
7986;BME280;4038;42.612;23.066;2022-11-25T00:18:29;92787.03;;;23.52;26.84
7986;BME280;4038;42.612;23.066;2022-11-25T00:20:54;92790.63;;;22.43;28.22
7986;BME280;4038;42.612;23.066;2022-11-25T00:23:19;92780.81;;;21.98;28.54
7986;BME280;4038;42.612;23.066;2022-11-25T00:25:45;92772.91;;;21.43;29.31
7986;BME280;4038;42.612;23.066;2022-11-25T00:28:10;92782.63;;;22.93;27.66
7986;BME280;4038;42.612;23.066;2022-11-25T00:30:36;92775.44;;;24.44;25.91
7986;BME280;4038;42.612;23.066;2022-11-25T00:33:01;92791.56;;;24.15;26.16
7986;BME280;4038;42.612;23.066;2022-11-25T00:35:27;92790.72;;;23.74;26.48
7986;BME280;4038;42.612;23.066;2022-11-25T00:37:52;92780.66;;;21.79;28.90
7986;BME280;4038;42.612;23.066;2022-11-25T00:42:43;92787.03;;;23.52;26.83
7986;BME280;4038;42.612;23.066;2022-11-25T00:45:26;92780.09;;;22.51;27.96
7986;BME280;4038;42.612;23.066;2022-11-25T00:47:52;92784.47;;;21.74;29.07
7986;BME280;4038;42.612;23.066;2022-11-25T00:50:18;92792.69;;;22.43;28.22
7986;BME280;4038;42.612;23.066;2022-11-25T00:52:43;92779.53;;;21.48;29.16
7986;BME280;4038;42.612;23.066;2022-11-25T00:55:09;92786.41;;;22.52;27.95
7986;BME280;4038;42.612;23.066;2022-11-25T00:57:34;92791.88;;;22.86;27.21
7986;BME280;4038;42.612;23.066;2022-11-25T01:00:00;92782.19;;;20.37;30.20
7986;BME280;4038;42.612;23.066;2022-11-25T01:02:26;92790.69;;;20.06;32.02
7986;BME280;4038;42.612;23.066;2022-11-25T01:04:51;92793.03;;;19.22;32.29
7986;BME280;4038;42.612;23.066;2022-11-25T01:07:17;92792.50;;;18.48;33.33
7986;BME280;4038;42.612;23.066;2022-11-25T01:09:43;92790.44;;;19.09;32.40
7986;BME280;4038;42.612;23.066;2022-11-25T01:12:08;92804.00;;;18.37;33.54
7986;BME280;4038;42.612;23.066;2022-11-25T01:14:34;92795.56;;;19.98;31.24
7986;BME280;4038;42.612;23.066;2022-11-25T01:16:59;92797.22;;;20.34;30.54
7986;BME280;4038;42.612;23.066;2022-11-25T01:19:25;92806.72;;;20.31;30.88
7986;BME280;4038;42.612;23.066;2022-11-25T01:21:50;92802.63;;;21.06;29.92
7986;BME280;4038;42.612;23.066;2022-11-25T01:24:16;92797.72;;;21.83;29.03
7986;BME280;4038;42.612;23.066;2022-11-25T01:26:43;92799.56;;;21.36;30.08
7986;BME280;4038;42.612;23.066;2022-11-25T01:29:14;92796.75;;;21.71;29.63
7986;BME280;4038;42.612;23.066;2022-11-25T01:31:40;92791.13;;;19.40;31.94
7986;BME280;4038;42.612;23.066;2022-11-25T01:34:17;92785.94;;;21.75;29.03
7986;BME280;4038;42.612;23.066;2022-11-25T01:36:43;92775.47;;;20.07;31.38
7986;BME280;4038;42.612;23.066;2022-11-25T01:39:16;92782.81;;;22.69;28.21
7986;BME280;4038;42.612;23.066;2022-11-25T01:41:42;92781.66;;;20.80;30.16
7986;BME280;4038;42.612;23.066;2022-11-25T01:44:13;92779.72;;;21.50;29.26
7986;BME280;4038;42.612;23.066;2022-11-25T01:47:08;92772.75;;;22.83;27.61
7986;BME280;4038;42.612;23.066;2022-11-25T01:49:38;92767.06;;;20.47;29.87
7986;BME280;4038;42.612;23.066;2022-11-25T01:52:11;92772.13;;;20.09;30.64
7986;BME280;4038;42.612;23.066;2022-11-25T01:54:43;92777.75;;;21.42;29.52
7986;BME280;4038;42.612;23.066;2022-11-25T01:57:18;92777.78;;;22.31;28.44
7986;BME280;4038;42.612;23.066;2022-11-25T01:59:49;92775.97;;;22.52;28.07
7986;BME280;4038;42.612;23.066;2022-11-25T02:02:16;92777.81;;;20.18;30.71
7986;BME280;4038;42.612;23.066;2022-11-25T02:04:43;92781.88;;;20.99;29.62
7986;BME280;4038;42.612;23.066;2022-11-25T02:07:39;92780.41;;;23.67;26.35
7986;BME280;4038;42.612;23.066;2022-11-25T02:10:07;92783.69;;;22.71;28.00
7986;BME280;4038;42.612;23.066;2022-11-25T02:12:34;92788.03;;;21.84;28.81
7986;BME280;4038;42.612;23.066;2022-11-25T02:15:03;92789.41;;;21.31;29.50
7986;BME280;4038;42.612;23.066;2022-11-25T02:17:28;92788.06;;;18.98;31.31
7986;BME280;4038;42.612;23.066;2022-11-25T02:27:40;92786.91;;;22.04;27.89
7986;BME280;4038;42.612;23.066;2022-11-25T02:30:07;92793.38;;;23.07;26.33
7986;BME280;4038;42.612;23.066;2022-11-25T02:32:33;92785.78;;;21.21;28.26
7986;BME280;4038;42.612;23.066;2022-11-25T02:34:58;92781.28;;;20.26;29.50
7986;BME280;4038;42.612;23.066;2022-11-25T02:37:24;92784.47;;;20.23;30.08
7986;BME280;4038;42.612;23.066;2022-11-25T02:39:50;92790.22;;;21.24;28.95
7986;BME280;4038;42.612;23.066;2022-11-25T02:42:18;92788.03;;;21.15;29.52
7986;BME280;4038;42.612;23.066;2022-11-25T02:44:47;92782.94;;;19.97;30.78
7986;BME280;4038;42.612;23.066;2022-11-25T02:47:12;92783.63;;;19.73;30.74
7986;BME280;4038;42.612;23.066;2022-11-25T02:49:38;92784.47;;;20.55;30.04
7986;BME280;4038;42.612;23.066;2022-11-25T02:52:03;92788.16;;;19.93;30.32
7986;BME280;4038;42.612;23.066;2022-11-25T02:54:29;92792.69;;;18.34;32.66
7986;BME280;4038;42.612;23.066;2022-11-25T02:56:54;92785.69;;;20.05;30.21
7986;BME280;4038;42.612;23.066;2022-11-25T02:59:20;92786.81;;;19.62;31.09
7986;BME280;4038;42.612;23.066;2022-11-25T03:01:45;92790.59;;;20.54;29.68
7986;BME280;4038;42.612;23.066;2022-11-25T03:04:11;92786.69;;;21.24;29.09
7986;BME280;4038;42.612;23.066;2022-11-25T03:06:36;92787.75;;;21.63;27.90
7986;BME280;4038;42.612;23.066;2022-11-25T03:09:02;92793.88;;;21.27;29.04
7986;BME280;4038;42.612;23.066;2022-11-25T03:11:27;92797.81;;;22.37;27.55
7986;BME280;4038;42.612;23.066;2022-11-25T03:14:11;92802.31;;;20.20;30.00
7986;BME280;4038;42.612;23.066;2022-11-25T03:16:36;92804.59;;;22.16;27.60
7986;BME280;4038;42.612;23.066;2022-11-25T03:19:02;92802.81;;;20.83;29.74
7986;BME280;4038;42.612;23.066;2022-11-25T03:21:27;92802.91;;;20.11;30.71
7986;BME280;4038;42.612;23.066;2022-11-25T03:23:53;92797.91;;;21.33;28.92
7986;BME280;4038;42.612;23.066;2022-11-25T03:26:18;92804.91;;;21.42;29.00
7986;BME280;4038;42.612;23.066;2022-11-25T03:28:43;92798.72;;;19.47;31.17
7986;BME280;4038;42.612;23.066;2022-11-25T03:31:10;92801.69;;;21.63;29.26
7986;BME280;4038;42.612;23.066;2022-11-25T03:33:35;92813.72;;;19.59;31.15
7986;BME280;4038;42.612;23.066;2022-11-25T03:36:00;92809.06;;;20.42;30.63
7986;BME280;4038;42.612;23.066;2022-11-25T03:38:26;92825.59;;;21.14;29.42
7986;BME280;4038;42.612;23.066;2022-11-25T03:40:51;92824.31;;;20.90;29.81
7986;BME280;4038;42.612;23.066;2022-11-25T03:43:17;92826.06;;;21.03;29.70
7986;BME280;4038;42.612;23.066;2022-11-25T03:45:42;92832.63;;;19.53;31.42
7986;BME280;4038;42.612;23.066;2022-11-25T03:48:07;92820.75;;;20.40;30.41
7986;BME280;4038;42.612;23.066;2022-11-25T03:50:33;92828.13;;;19.80;31.23
7986;BME280;4038;42.612;23.066;2022-11-25T03:52:58;92825.84;;;20.26;31.25
7986;BME280;4038;42.612;23.066;2022-11-25T03:55:24;92833.91;;;19.60;31.49
7986;BME280;4038;42.612;23.066;2022-11-25T03:57:49;92839.84;;;21.01;30.24
7986;BME280;4038;42.612;23.066;2022-11-25T04:00:14;92830.59;;;21.58;29.25
7986;BME280;4038;42.612;23.066;2022-11-25T04:02:40;92834.44;;;20.78;30.44
7986;BME280;4038;42.612;23.066;2022-11-25T04:05:06;92829.13;;;20.40;30.86
7986;BME280;4038;42.612;23.066;2022-11-25T04:07:31;92836.34;;;21.60;29.19
7986;BME280;4038;42.612;23.066;2022-11-25T04:09:56;92835.19;;;20.79;30.50
7986;BME280;4038;42.612;23.066;2022-11-25T04:12:22;92841.19;;;20.67;30.57
7986;BME280;4038;42.612;23.066;2022-11-25T04:15:06;92845.41;;;21.01;30.13
7986;BME280;4038;42.612;23.066;2022-11-25T04:17:32;92844.81;;;22.31;28.61
7986;BME280;4038;42.612;23.066;2022-11-25T04:19:57;92853.94;;;23.12;26.96
7986;BME280;4038;42.612;23.066;2022-11-25T04:22:23;92843.03;;;22.79;27.93
7986;BME280;4038;42.612;23.066;2022-11-25T04:24:48;92852.69;;;19.44;31.98
7986;BME280;4038;42.612;23.066;2022-11-25T04:27:13;92857.16;;;19.17;32.48
7986;BME280;4038;42.612;23.066;2022-11-25T04:29:39;92862.88;;;20.52;30.58
7986;BME280;4038;42.612;23.066;2022-11-25T04:32:04;92871.38;;;19.66;31.72
7986;BME280;4038;42.612;23.066;2022-11-25T04:34:29;92870.63;;;22.22;28.30
7986;BME280;4038;42.612;23.066;2022-11-25T04:36:55;92877.50;;;21.34;29.27
7986;BME280;4038;42.612;23.066;2022-11-25T04:39:20;92878.03;;;21.58;29.13
7986;BME280;4038;42.612;23.066;2022-11-25T04:41:46;92883.09;;;21.52;29.67
7986;BME280;4038;42.612;23.066;2022-11-25T04:44:11;92895.69;;;22.56;27.88
7986;BME280;4038;42.612;23.066;2022-11-25T04:46:39;92900.63;;;22.65;28.60
7986;BME280;4038;42.612;23.066;2022-11-25T04:49:05;92889.19;;;21.92;28.79
7986;BME280;4038;42.612;23.066;2022-11-25T04:51:30;92900.38;;;19.96;31.69
7986;BME280;4038;42.612;23.066;2022-11-25T04:53:56;92894.28;;;19.89;32.01
7986;BME280;4038;42.612;23.066;2022-11-25T04:56:22;92908.31;;;18.91;33.44
7986;BME280;4038;42.612;23.066;2022-11-25T04:58:47;92914.97;;;19.26;33.13
7986;BME280;4038;42.612;23.066;2022-11-25T05:01:31;92922.56;;;19.25;32.57
7986;BME280;4038;42.612;23.066;2022-11-25T05:03:56;92917.25;;;17.58;34.92
7986;BME280;4038;42.612;23.066;2022-11-25T05:06:22;92921.91;;;18.51;34.03
7986;BME280;4038;42.612;23.066;2022-11-25T05:08:48;92924.97;;;19.06;33.94
7986;BME280;4038;42.612;23.066;2022-11-25T05:11:14;92928.91;;;17.36;35.33
7986;BME280;4038;42.612;23.066;2022-11-25T05:13:39;92932.50;;;17.73;35.15
7986;BME280;4038;42.612;23.066;2022-11-25T05:16:05;92933.06;;;18.07;35.14
7986;BME280;4038;42.612;23.066;2022-11-25T05:18:31;92944.25;;;19.42;32.82
7986;BME280;4038;42.612;23.066;2022-11-25T05:21:03;92947.00;;;20.50;31.76
7986;BME280;4038;42.612;23.066;2022-11-25T05:23:28;92940.19;;;18.39;33.79
7986;BME280;4038;42.612;23.066;2022-11-25T05:26:01;92955.94;;;19.63;32.96
7986;BME280;4038;42.612;23.066;2022-11-25T05:28:27;92963.75;;;19.57;32.52
7986;BME280;4038;42.612;23.066;2022-11-25T05:30:53;92961.38;;;20.24;31.40
7986;BME280;4038;42.612;23.066;2022-11-25T05:33:18;92962.28;;;21.98;28.89
7986;BME280;4038;42.612;23.066;2022-11-25T05:35:44;92968.25;;;20.23;30.94
7986;BME280;4038;42.612;23.066;2022-11-25T05:38:09;92975.44;;;20.26;30.70
7986;BME280;4038;42.612;23.066;2022-11-25T05:40:35;92989.28;;;19.94;31.13
7986;BME280;4038;42.612;23.066;2022-11-25T05:43:00;92983.25;;;20.27;30.55
7986;BME280;4038;42.612;23.066;2022-11-25T05:45:26;93000.56;;;20.74;30.60
7986;BME280;4038;42.612;23.066;2022-11-25T05:47:51;92994.59;;;21.67;29.11
7986;BME280;4038;42.612;23.066;2022-11-25T05:50:16;93000.31;;;21.69;29.19
7986;BME280;4038;42.612;23.066;2022-11-25T05:52:42;92999.69;;;20.96;29.70
7986;BME280;4038;42.612;23.066;2022-11-25T05:55:07;93006.59;;;21.27;29.77
7986;BME280;4038;42.612;23.066;2022-11-25T05:57:33;93007.75;;;20.44;30.40
7986;BME280;4038;42.612;23.066;2022-11-25T05:59:58;93018.91;;;18.92;32.13
7986;BME280;4038;42.612;23.066;2022-11-25T06:02:24;93025.25;;;19.38;31.18
7986;BME280;4038;42.612;23.066;2022-11-25T06:04:49;93026.34;;;19.20;31.43
7986;BME280;4038;42.612;23.066;2022-11-25T06:07:15;93016.03;;;19.66;30.92
7986;BME280;4038;42.612;23.066;2022-11-25T06:09:40;93033.09;;;19.55;30.80
7986;BME280;4038;42.612;23.066;2022-11-25T06:12:06;93035.91;;;18.89;32.05
7986;BME280;4038;42.612;23.066;2022-11-25T06:14:31;93044.53;;;20.35;30.10
7986;BME280;4038;42.612;23.066;2022-11-25T06:16:56;93040.47;;;20.13;29.90
7986;BME280;4038;42.612;23.066;2022-11-25T06:19:22;93036.75;;;19.42;30.90
7986;BME280;4038;42.612;23.066;2022-11-25T06:21:47;93041.03;;;19.36;30.61
7986;BME280;4038;42.612;23.066;2022-11-25T06:24:13;93037.53;;;18.69;31.85
7986;BME280;4038;42.612;23.066;2022-11-25T06:26:38;93042.47;;;18.19;31.77
7986;BME280;4038;42.612;23.066;2022-11-25T06:29:03;93043.03;;;19.20;30.81
7986;BME280;4038;42.612;23.066;2022-11-25T06:31:29;93056.28;;;18.12;32.70
7986;BME280;4038;42.612;23.066;2022-11-25T06:33:54;93054.59;;;20.00;29.92
7986;BME280;4038;42.612;23.066;2022-11-25T06:36:21;93059.00;;;19.42;31.15
7986;BME280;4038;42.612;23.066;2022-11-25T06:38:51;93052.72;;;21.21;29.10
7986;BME280;4038;42.612;23.066;2022-11-25T06:41:18;93052.81;;;19.06;31.32
7986;BME280;4038;42.612;23.066;2022-11-25T06:43:43;93046.28;;;17.60;33.82
7986;BME280;4038;42.612;23.066;2022-11-25T06:46:11;93063.13;;;19.49;32.05
7986;BME280;4038;42.612;23.066;2022-11-25T06:48:38;93056.56;;;19.08;31.62
7986;BME280;4038;42.612;23.066;2022-11-25T06:51:06;93062.72;;;19.37;32.17
7986;BME280;4038;42.612;23.066;2022-11-25T06:53:32;93060.53;;;19.66;31.68
7986;BME280;4038;42.612;23.066;2022-11-25T06:56:12;93067.41;;;21.21;30.08
7986;BME280;4038;42.612;23.066;2022-11-25T06:58:38;93055.75;;;21.08;29.20
7986;BME280;4038;42.612;23.066;2022-11-25T07:01:15;93061.84;;;21.21;29.34
7986;BME280;4038;42.612;23.066;2022-11-25T07:03:42;93067.25;;;22.01;28.85
7986;BME280;4038;42.612;23.066;2022-11-25T07:06:08;93076.56;;;22.98;26.81
7986;BME280;4038;42.612;23.066;2022-11-25T07:08:34;93071.00;;;22.21;27.66
7986;BME280;4038;42.612;23.066;2022-11-25T07:11:08;93076.94;;;23.55;26.31
7986;BME280;4038;42.612;23.066;2022-11-25T07:13:34;93081.72;;;22.67;26.38
7986;BME280;4038;42.612;23.066;2022-11-25T07:16:04;93074.06;;;22.50;27.56
7986;BME280;4038;42.612;23.066;2022-11-25T07:21:07;93080.09;;;25.19;24.43
7986;BME280;4038;42.612;23.066;2022-11-25T07:23:35;93086.75;;;25.23;24.09
7986;BME280;4038;42.612;23.066;2022-11-25T07:26:12;93079.81;;;26.25;22.79
7986;BME280;4038;42.612;23.066;2022-11-25T07:28:39;93090.75;;;26.30;22.92
7986;BME280;4038;42.612;23.066;2022-11-25T07:31:05;93090.25;;;24.57;23.71
7986;BME280;4038;42.612;23.066;2022-11-25T07:33:30;93089.75;;;23.95;24.44
7986;BME280;4038;42.612;23.066;2022-11-25T07:36:03;93079.13;;;25.74;23.22
7986;BME280;4038;42.612;23.066;2022-11-25T07:38:30;93086.16;;;23.04;25.44
7986;BME280;4038;42.612;23.066;2022-11-25T07:40:55;93086.44;;;22.81;25.67
7986;BME280;4038;42.612;23.066;2022-11-25T07:43:20;93082.56;;;24.01;23.98
7986;BME280;4038;42.612;23.066;2022-11-25T07:45:46;93088.13;;;22.94;25.22
7986;BME280;4038;42.612;23.066;2022-11-25T07:48:12;93089.53;;;22.68;25.20
7986;BME280;4038;42.612;23.066;2022-11-25T07:50:37;93087.06;;;21.63;26.13
7986;BME280;4038;42.612;23.066;2022-11-25T07:53:02;93097.38;;;21.78;26.36
7986;BME280;4038;42.612;23.066;2022-11-25T07:55:28;93097.41;;;20.50;27.48
7986;BME280;4038;42.612;23.066;2022-11-25T07:57:53;93098.66;;;20.64;27.33
7986;BME280;4038;42.612;23.066;2022-11-25T08:00:19;93108.41;;;19.72;28.49
7986;BME280;4038;42.612;23.066;2022-11-25T08:02:45;93102.44;;;20.29;27.98
7986;BME280;4038;42.612;23.066;2022-11-25T08:05:10;93103.94;;;21.40;26.58
7986;BME280;4038;42.612;23.066;2022-11-25T08:07:36;93106.16;;;21.74;26.08
7986;BME280;4038;42.612;23.066;2022-11-25T08:10:01;93108.94;;;23.01;24.90
7986;BME280;4038;42.612;23.066;2022-11-25T08:12:27;93098.81;;;20.82;26.64
7986;BME280;4038;42.612;23.066;2022-11-25T08:14:52;93093.91;;;23.40;24.24
7986;BME280;4038;42.612;23.066;2022-11-25T08:17:18;93102.00;;;22.08;25.79
7986;BME280;4038;42.612;23.066;2022-11-25T08:19:43;93099.16;;;22.15;25.98
7986;BME280;4038;42.612;23.066;2022-11-25T08:22:09;93111.72;;;23.01;25.04
7986;BME280;4038;42.612;23.066;2022-11-25T08:24:34;93112.56;;;22.34;25.80
7986;BME280;4038;42.612;23.066;2022-11-25T08:26:59;93113.03;;;23.34;24.56
7986;BME280;4038;42.612;23.066;2022-11-25T08:29:26;93121.53;;;24.17;24.48
7986;BME280;4038;42.612;23.066;2022-11-25T08:31:51;93113.97;;;25.90;23.01
7986;BME280;4038;42.612;23.066;2022-11-25T08:34:22;93114.28;;;24.40;23.82
7986;BME280;4038;42.612;23.066;2022-11-25T08:36:48;93108.88;;;22.32;25.84
7986;BME280;4038;42.612;23.066;2022-11-25T08:39:13;93123.47;;;22.47;25.89
7986;BME280;4038;42.612;23.066;2022-11-25T08:41:39;93119.56;;;22.26;26.13
7986;BME280;4038;42.612;23.066;2022-11-25T08:44:06;93111.22;;;22.60;26.18
7986;BME280;4038;42.612;23.066;2022-11-25T08:46:34;93126.34;;;23.26;25.35
7986;BME280;4038;42.612;23.066;2022-11-25T08:49:02;93112.50;;;22.42;25.80
7986;BME280;4038;42.612;23.066;2022-11-25T08:51:29;93118.91;;;22.94;25.45
7986;BME280;4038;42.612;23.066;2022-11-25T08:53:55;93121.09;;;22.61;25.40
7986;BME280;4038;42.612;23.066;2022-11-25T08:56:22;93115.84;;;23.17;25.56
7986;BME280;4038;42.612;23.066;2022-11-25T08:58:48;93115.66;;;23.32;25.09
7986;BME280;4038;42.612;23.066;2022-11-25T09:01:14;93117.53;;;23.73;24.77
7986;BME280;4038;42.612;23.066;2022-11-25T09:03:42;93127.78;;;24.25;24.72
7986;BME280;4038;42.612;23.066;2022-11-25T09:06:09;93130.44;;;22.39;26.70
7986;BME280;4038;42.612;23.066;2022-11-25T09:08:35;93116.63;;;21.91;26.77
7986;BME280;4038;42.612;23.066;2022-11-25T09:11:02;93130.81;;;22.35;26.34
7986;BME280;4038;42.612;23.066;2022-11-25T09:13:27;93126.84;;;22.21;26.77
7986;BME280;4038;42.612;23.066;2022-11-25T09:15:53;93127.66;;;21.24;27.61
7986;BME280;4038;42.612;23.066;2022-11-25T09:18:18;93130.72;;;22.85;25.80
7986;BME280;4038;42.612;23.066;2022-11-25T09:20:45;93124.88;;;23.25;25.81
7986;BME280;4038;42.612;23.066;2022-11-25T09:23:11;93136.06;;;23.96;25.14
7986;BME280;4038;42.612;23.066;2022-11-25T09:25:37;93138.44;;;22.59;26.31
7986;BME280;4038;42.612;23.066;2022-11-25T09:28:05;93128.03;;;22.94;26.74
7986;BME280;4038;42.612;23.066;2022-11-25T09:30:31;93132.53;;;22.31;26.58
7986;BME280;4038;42.612;23.066;2022-11-25T09:32:57;93145.22;;;21.74;27.13
7986;BME280;4038;42.612;23.066;2022-11-25T09:35:23;93143.41;;;23.91;25.38
7986;BME280;4038;42.612;23.066;2022-11-25T09:37:49;93141.16;;;23.53;25.43
7986;BME280;4038;42.612;23.066;2022-11-25T09:40:20;93137.16;;;24.46;25.13
7986;BME280;4038;42.612;23.066;2022-11-25T09:43:19;93148.72;;;24.70;24.60
7986;BME280;4038;42.612;23.066;2022-11-25T09:52:05;93160.28;;;25.70;24.29
7986;BME280;4038;42.612;23.066;2022-11-25T10:00:00;93156.44;;;21.99;27.09
7986;BME280;4038;42.612;23.066;2022-11-25T10:02:36;93151.88;;;22.95;26.08
7986;BME280;4038;42.612;23.066;2022-11-25T10:05:29;93156.53;;;21.52;27.46
7986;BME280;4038;42.612;23.066;2022-11-25T10:08:01;93152.78;;;22.39;27.27
7986;BME280;4038;42.612;23.066;2022-11-25T10:10:30;93157.53;;;23.22;26.40
7986;BME280;4038;42.612;23.066;2022-11-25T10:12:58;93147.88;;;21.65;28.22
7986;BME280;4038;42.612;23.066;2022-11-25T10:15:33;93159.28;;;22.16;27.61
7986;BME280;4038;42.612;23.066;2022-11-25T10:18:12;93160.06;;;23.28;25.77
7986;BME280;4038;42.612;23.066;2022-11-25T10:20:41;93169.13;;;21.20;27.72
7986;BME280;4038;42.612;23.066;2022-11-25T10:23:34;93163.94;;;21.89;27.25
7986;BME280;4038;42.612;23.066;2022-11-25T10:26:16;93164.31;;;21.05;28.08
7986;BME280;4038;42.612;23.066;2022-11-25T10:28:54;93162.00;;;21.34;28.31
7986;BME280;4038;42.612;23.066;2022-11-25T10:31:28;93171.81;;;20.88;28.72
7986;BME280;4038;42.612;23.066;2022-11-25T10:33:57;93149.59;;;20.27;29.84
7986;BME280;4038;42.612;23.066;2022-11-25T10:43:21;93169.03;;;20.88;29.03
7986;BME280;4038;42.612;23.066;2022-11-25T10:45:53;93168.81;;;23.15;27.20
7986;BME280;4038;42.612;23.066;2022-11-25T10:56:53;93166.81;;;21.34;29.21
7986;BME280;4038;42.612;23.066;2022-11-25T11:01:52;93160.31;;;19.62;31.46
7986;BME280;4038;42.612;23.066;2022-11-25T11:04:18;93164.41;;;20.67;29.98
7986;BME280;4038;42.612;23.066;2022-11-25T11:06:47;93167.56;;;20.72;30.52
7986;BME280;4038;42.612;23.066;2022-11-25T11:09:33;93162.38;;;23.22;27.16
7986;BME280;4038;42.612;23.066;2022-11-25T11:12:28;93167.69;;;22.34;28.17
7986;BME280;4038;42.612;23.066;2022-11-25T11:15:13;93173.78;;;21.58;29.01
7986;BME280;4038;42.612;23.066;2022-11-25T11:17:38;93170.94;;;21.25;29.27
7986;BME280;4038;42.612;23.066;2022-11-25T11:22:44;93180.00;;;21.81;29.37
7986;BME280;4038;42.612;23.066;2022-11-25T11:27:46;93172.19;;;20.77;30.51
7986;BME280;4038;42.612;23.066;2022-11-25T11:30:23;93175.56;;;20.67;30.38
7986;BME280;4038;42.612;23.066;2022-11-25T11:32:57;93180.59;;;20.46;31.24
7986;BME280;4038;42.612;23.066;2022-11-25T11:35:48;93187.69;;;21.65;29.59
7986;BME280;4038;42.612;23.066;2022-11-25T11:38:35;93177.63;;;20.29;31.03
7986;BME280;4038;42.612;23.066;2022-11-25T11:43:50;93191.84;;;19.65;31.55
7986;BME280;4038;42.612;23.066;2022-11-25T11:46:40;93185.22;;;20.82;30.42
7986;BME280;4038;42.612;23.066;2022-11-25T11:54:45;93187.53;;;21.96;29.14
7986;BME280;4038;42.612;23.066;2022-11-25T11:57:44;93197.38;;;22.54;28.03
7986;BME280;4038;42.612;23.066;2022-11-25T12:00:15;93197.28;;;23.04;27.80
7986;BME280;4038;42.612;23.066;2022-11-25T12:02:57;93192.69;;;21.74;29.12
7986;BME280;4038;42.612;23.066;2022-11-25T12:05:26;93191.94;;;22.31;28.38
7986;BME280;4038;42.612;23.066;2022-11-25T12:10:47;93189.38;;;22.01;28.94
7986;BME280;4038;42.612;23.066;2022-11-25T12:18:55;93200.56;;;22.75;27.67
7986;BME280;4038;42.612;23.066;2022-11-25T12:27:00;93185.63;;;22.73;28.29
7986;BME280;4038;42.612;23.066;2022-11-25T12:32:37;93199.97;;;21.15;29.24
7986;BME280;4038;42.612;23.066;2022-11-25T12:40:06;93198.75;;;22.63;28.19
7986;BME280;4038;42.612;23.066;2022-11-25T12:42:38;93200.25;;;21.49;29.55
7986;BME280;4038;42.612;23.066;2022-11-25T12:45:22;93195.94;;;22.45;28.45
7986;BME280;4038;42.612;23.066;2022-11-25T12:47:48;93212.75;;;21.33;29.38
7986;BME280;4038;42.612;23.066;2022-11-25T12:50:23;93206.38;;;22.20;28.54
7986;BME280;4038;42.612;23.066;2022-11-25T12:53:12;93191.53;;;23.19;27.36
7986;BME280;4038;42.612;23.066;2022-11-25T12:55:41;93186.09;;;22.86;27.73
7986;BME280;4038;42.612;23.066;2022-11-25T13:17:18;93189.31;;;21.76;28.36
7986;BME280;4038;42.612;23.066;2022-11-25T13:19:44;93189.94;;;21.12;28.72
7986;BME280;4038;42.612;23.066;2022-11-25T13:24:58;93175.41;;;21.28;29.72
7986;BME280;4038;42.612;23.066;2022-11-25T13:27:31;93185.25;;;23.45;26.94
7986;BME280;4038;42.612;23.066;2022-11-25T13:29:58;93179.63;;;24.16;25.78
7986;BME280;4038;42.612;23.066;2022-11-25T13:32:25;93176.56;;;22.89;26.40
7986;BME280;4038;42.612;23.066;2022-11-25T13:37:53;93180.91;;;23.00;26.11
7986;BME280;4038;42.612;23.066;2022-11-25T13:42:48;93177.03;;;22.78;26.62
7986;BME280;4038;42.612;23.066;2022-11-25T13:45:34;93177.69;;;22.86;26.98
7986;BME280;4038;42.612;23.066;2022-11-25T13:48:05;93176.28;;;23.29;26.61
7986;BME280;4038;42.612;23.066;2022-11-25T13:50:31;93184.00;;;21.95;27.42
7986;BME280;4038;42.612;23.066;2022-11-25T13:53:05;93179.16;;;23.56;26.08
7986;BME280;4038;42.612;23.066;2022-11-25T13:55:38;93188.34;;;24.57;25.18
7986;BME280;4038;42.612;23.066;2022-11-25T14:08:36;93194.13;;;25.34;24.19
7986;BME280;4038;42.612;23.066;2022-11-25T14:22:18;93206.81;;;22.83;26.35
7986;BME280;4038;42.612;23.066;2022-11-25T14:24:50;93208.81;;;23.25;26.75
7986;BME280;4038;42.612;23.066;2022-11-25T14:27:20;93218.25;;;24.81;25.20
7986;BME280;4038;42.612;23.066;2022-11-25T14:29:59;93212.88;;;25.79;23.82
7986;BME280;4038;42.612;23.066;2022-11-25T14:32:39;93221.88;;;24.55;24.65
7986;BME280;4038;42.612;23.066;2022-11-25T14:35:15;93228.53;;;25.44;24.41
7986;BME280;4038;42.612;23.066;2022-11-25T14:43:22;93226.00;;;25.00;24.46
7986;BME280;4038;42.612;23.066;2022-11-25T14:46:14;93228.06;;;24.99;24.39
7986;BME280;4038;42.612;23.066;2022-11-25T14:48:42;93221.59;;;24.06;26.04
7986;BME280;4038;42.612;23.066;2022-11-25T14:51:10;93221.88;;;23.40;26.64
7986;BME280;4038;42.612;23.066;2022-11-25T14:53:44;93228.22;;;24.01;26.02
7986;BME280;4038;42.612;23.066;2022-11-25T14:56:12;93224.09;;;23.24;26.92
7986;BME280;4038;42.612;23.066;2022-11-25T14:58:45;93216.22;;;24.18;26.03
7986;BME280;4038;42.612;23.066;2022-11-25T15:03:46;93211.59;;;23.59;26.47
7986;BME280;4038;42.612;23.066;2022-11-25T15:06:12;93227.06;;;22.67;27.28
7986;BME280;4038;42.612;23.066;2022-11-25T15:08:43;93225.47;;;24.11;25.62
7986;BME280;4038;42.612;23.066;2022-11-25T15:11:20;93222.94;;;24.69;24.96
7986;BME280;4038;42.612;23.066;2022-11-25T15:14:01;93224.41;;;23.80;26.19
7986;BME280;4038;42.612;23.066;2022-11-25T15:16:34;93224.94;;;23.17;27.33
7986;BME280;4038;42.612;23.066;2022-11-25T15:19:02;93225.81;;;22.35;28.37
7986;BME280;4038;42.612;23.066;2022-11-25T15:21:31;93230.28;;;24.91;25.63
7986;BME280;4038;42.612;23.066;2022-11-25T15:23:58;93228.88;;;22.22;27.68
7986;BME280;4038;42.612;23.066;2022-11-25T15:26:25;93250.31;;;22.19;28.59
7986;BME280;4038;42.612;23.066;2022-11-25T15:29:05;93252.03;;;23.93;26.47
7986;BME280;4038;42.612;23.066;2022-11-25T15:31:35;93243.31;;;24.79;25.21
7986;BME280;4038;42.612;23.066;2022-11-25T15:34:04;93236.91;;;24.96;25.21